This is the latest recevied weather packets stored in our database for station/object IT9FDP-13. If no packets are shown the sender has not sent any weather packets the latest 10 day(s).
| Time | Temp. | Humidity | Pressure | Rain* | Wind** | Luminosity | Snow |
|---|---|---|---|---|---|---|---|
| 1777287925 | 20° C | 68% | 1017.2 hPa | 0 mm | - | - | - |
| 1777282524 | 18.89° C | 69% | 1017.7 hPa | 0 mm | - | - | - |
| 1777282225 | 18.89° C | 68% | 1017.7 hPa | 0 mm | - | - | - |
| 1777280715 | 19.44° C | 68% | 1018 hPa | 0 mm | - | - | - |
| 1777278617 | 18.89° C | 70% | 1018.1 hPa | 0 mm | - | - | - |
| 1777277122 | 18.33° C | 70% | 1018.1 hPa | 0 mm | - | - | - |
| 1777276840 | 18.89° C | 70% | 1018.1 hPa | 0 mm | - | - | - |
| 1777276238 | 18.33° C | 71% | 1018.1 hPa | 0 mm | - | - | - |
| 1777275625 | 18.33° C | 72% | 1018.1 hPa | 0 mm | - | - | - |
| 1777272625 | 18.33° C | 74% | 1018.3 hPa | 0 mm | - | - | - |
| 1777272020 | 18.33° C | 75% | 1018.3 hPa | 0 mm | - | - | - |
| 1777269340 | 17.22° C | 78% | 1018.1 hPa | 0 mm | - | - | - |
| 1777268118 | 16.67° C | 78% | 1017.9 hPa | 0 mm | - | - | - |
| 1777264864 | 16.11° C | 80% | 1017.5 hPa | 0 mm | - | - | - |
| 1777263921 | 15.56° C | 80% | 1017.4 hPa | 0 mm | - | - | - |
| 1777262725 | 15.56° C | 80% | 1017.3 hPa | 0 mm | - | - | - |
| 1777262421 | 15.56° C | 80% | 1017.3 hPa | 0 mm | - | - | - |
| 1777258822 | 15.56° C | 79% | 1017.2 hPa | 0 mm | - | - | - |
| 1777256121 | 16.11° C | 78% | 1017.3 hPa | 0 mm | - | - | - |
| 1777254025 | 16.11° C | 76% | 1017.4 hPa | 0 mm | - | - | - |
| 1777253116 | 16.11° C | 76% | 1017.5 hPa | 0 mm | - | - | - |
| 1777248622 | 16.11° C | 75% | 1017.6 hPa | 0 mm | - | - | - |
| 1777247421 | 16.11° C | 74% | 1017.7 hPa | 0 mm | - | - | - |
| 1777246243 | 16.67° C | 74% | 1018 hPa | 0 mm | - | - | - |
| 1777245023 | 16.67° C | 74% | 1018.1 hPa | 0 mm | - | - | - |
* Rain latest hour (hover to see other rain measurements)
** Current wind speed in m/s (hover to see current wind gust speed)